Dalhart, TX

8:11 PM CDT on June 03, 2015 (GMT -0500)
Dalhart Municipal | | Change Station
CLOSE
Current Station
Airport
Location: Dalhart,
Elevation: 3990 ft
Nearby Weather Stations

Elev 3990 ft 36.03 °N, 102.55 °W | Updated 18 minutes ago

Clear
Clear
87 °F
Feels Like 86 °F
N
12
Wind Variable Wind from SSE

Today
High -- | Low -- °F
--% Chance of Precip.
Yesterday
High -- | Low -- °F
Precip. -- in
6:34 AM 9:02 PM
Full, 98% visible
Pressure 29.67 in
Visibility 10.0 miles
Clouds Clear
Heat Index 86 °F
Dew Point 59 °F
Humidity 39%
Rainfall 0.00 in
Snow Depth Not available.
UV 1 out of 12
Pollen 7.00 out of 12
Air Quality Not available.
Flu Activity Local Activity
METAR KDHT 040053Z AUTO 15010KT 10SM CLR 31/15 A2985 RMK AO2 SLP047 T03060150

More Conditions Fewer Conditions

Pressure 29.67 in
Visibility 10.0 miles
Clouds Clear
Heat Index 86 °F
Dew Point 59 °F
Humidity 39%
Rainfall 0.00 in
Snow Depth Not available.
UV 1 out of 12
Pollen 7.00 out of 12
Air Quality Not available.
Flu Activity Local Activity
METAR KDHT 040053Z AUTO 15010KT 10SM CLR 31/15 A2985 RMK AO2 SLP047 T03060150

More Conditions Fewer Conditions

Nowcast | as of 6:29 PM CDT on June 3, 2015

Isolated thunderstorms will move northeast across the northwest Texas Panhandle and the western Oklahoma Panhandle this evening. Some of the stronger storms will be capable of producing strong gusty winds...hail...and brief heavy rain. Stratford...Texhoma...Griggs and Goodwell are a few places that may be affected by the thunderstorms through sunset.

×

10-Day Weather Forecast

×

Almanac

Astronomy

Jun. 03, 2015 Rise Set
Actual Time
Civil Twilight
Nautical Twilight
Astronomical Twilight
Moon
Length of Visible Light
Length of Day
Tomorrow will be .
, % of the Moon is Illuminated

Today's Extremes

State Highs State Lows

Community

WunderPhotos

Upload Photos

1,826,343 photos uploaded!

WunderBlogs® & News

Nearby

Air Quality

  Air Quality AQ Index Pollutant
Not available.

Snow Depth

Station Depth Elevation

Earthquake Activity

City Distance Mag. Time & Date
Minimum magnitude displayed is 2.5.

Coastal Water Temperatures

Place Temperature

Stations

Nearby Weather Stations

Station Location Temp. Windchill Dew Point Humidity Wind Precip. Elev Updated Type